Time;durP1;ratioP1;P1;durP2;ratioP2;P2;SDS_P1;SDS_P2;PMS_P1;PMS_P2;Temp;Humidity;BMP_temperature;BMP_pressure;BME280_temperature;BME280_humidity;BME280_pressure;Samples;Min_cycle;Max_cycle;Signal;HPM_P1;HPM_P2
2023/01/14 00:02:18;;;;;;;2.17;1.00;;;;;;;9.67;94.08;100145.38;5023082;28;20080;-67
2023/01/14 00:04:43;;;;;;;0.35;0.35;;;;;;;9.80;94.04;100133.28;5018057;28;20053;-68
2023/01/14 00:07:09;;;;;;;9.75;1.17;;;;;;;9.87;93.67;100141.44;5018355;28;20042;-68
2023/01/14 00:09:34;;;;;;;4.25;0.88;;;;;;;9.82;93.96;100139.06;5021414;28;20502;-68
2023/01/14 00:12:00;;;;;;;3.38;0.52;;;;;;;9.78;93.46;100146.31;5023759;28;20025;-68
2023/01/14 00:14:30;;;;;;;3.88;0.88;;;;;;;9.78;93.08;100142.84;5020557;28;20045;-68
2023/01/14 00:16:57;;;;;;;1.50;0.40;;;;;;;9.74;93.90;100142.00;5018461;28;20383;-68
2023/01/14 00:19:23;;;;;;;1.10;0.47;;;;;;;9.70;93.50;100143.88;5022052;28;20110;-68
2023/01/14 00:21:50;;;;;;;2.78;1.25;;;;;;;9.60;94.21;100153.31;5027551;28;20037;-68
2023/01/14 00:24:18;;;;;;;2.35;0.85;;;;;;;9.67;94.02;100149.97;5021813;28;20037;-68
2023/01/14 00:26:45;;;;;;;4.78;0.85;;;;;;;9.75;93.65;100154.34;5024988;28;20088;-68
2023/01/14 00:29:16;;;;;;;2.70;1.30;;;;;;;9.63;94.49;100157.22;5018648;28;20495;-68
2023/01/14 00:31:43;;;;;;;2.38;0.95;;;;;;;9.74;94.01;100166.22;5035338;28;20069;-68
2023/01/14 00:34:09;;;;;;;1.33;0.50;;;;;;;9.85;93.34;100165.22;5025791;28;20033;-68
2023/01/14 00:36:35;;;;;;;0.80;0.50;;;;;;;9.80;93.30;100154.00;5023717;28;20111;-68
2023/01/14 00:39:01;;;;;;;7.32;0.80;;;;;;;9.88;92.75;100161.06;5038197;28;20079;-68
2023/01/14 00:41:27;;;;;;;5.50;1.23;;;;;;;9.80;92.81;100154.00;5020502;28;20037;-68
2023/01/14 00:43:55;;;;;;;3.72;0.60;;;;;;;9.82;92.39;100167.88;5022866;28;20298;-68
2023/01/14 00:46:25;;;;;;;0.82;0.68;;;;;;;9.81;92.42;100166.34;5026162;28;20045;-68
2023/01/14 00:48:50;;;;;;;0.65;0.43;;;;;;;9.80;92.96;100170.16;5025591;28;20737;-68
2023/01/14 00:51:17;;;;;;;11.07;1.20;;;;;;;9.82;93.28;100174.03;5006249;28;20067;-68
2023/01/14 00:53:45;;;;;;;2.75;0.57;;;;;;;9.81;92.58;100177.84;5022622;28;20464;-68
2023/01/14 00:56:12;;;;;;;1.17;0.50;;;;;;;9.78;92.47;100189.34;5033047;28;20029;-68
2023/01/14 00:58:37;;;;;;;2.70;0.73;;;;;;;9.78;93.33;100185.88;5027271;28;20045;-68
2023/01/14 01:01:04;;;;;;;3.03;0.73;;;;;;;9.93;92.70;100190.31;5025232;28;20038;-68
2023/01/14 01:03:30;;;;;;;3.08;0.93;;;;;;;10.00;92.36;100190.44;5020963;28;20485;-68
2023/01/14 01:05:55;;;;;;;4.53;0.73;;;;;;;10.01;91.78;100191.97;5017375;28;20041;-68
2023/01/14 01:08:22;;;;;;;0.40;0.40;;;;;;;9.94;92.20;100205.34;5040154;28;20029;-68
2023/01/14 01:10:52;;;;;;;1.23;0.65;;;;;;;9.92;92.36;100194.94;5032213;28;20033;-68
2023/01/14 01:13:19;;;;;;;0.57;0.57;;;;;;;9.96;91.96;100203.06;5020938;28;20029;-68
2023/01/14 01:15:44;;;;;;;4.30;0.40;;;;;;;9.97;92.01;100204.59;5026715;28;20044;-68
2023/01/14 01:18:12;;;;;;;1.17;0.70;;;;;;;9.91;91.99;100198.75;5027517;28;20505;-68
2023/01/14 01:20:38;;;;;;;1.42;0.50;;;;;;;9.78;92.66;100202.00;5017813;28;20030;-68
2023/01/14 01:23:05;;;;;;;1.90;0.80;;;;;;;9.77;92.73;100208.53;5016685;28;20033;-68
2023/01/14 01:25:30;;;;;;;6.18;1.08;;;;;;;9.65;93.14;100216.78;5017502;28;20486;-68
2023/01/14 01:27:57;;;;;;;3.15;0.80;;;;;;;9.68;93.00;100224.09;5017902;28;20136;-68
2023/01/14 01:30:24;;;;;;;4.95;0.57;;;;;;;9.68;93.21;100224.09;5033484;28;20068;-68
2023/01/14 01:33:09;;;;;;;0.28;0.28;;;;;;;9.72;92.68;100214.97;5034800;28;20466;-68
2023/01/14 01:35:35;;;;;;;0.75;0.52;;;;;;;9.73;93.14;100224.59;4981966;28;20120;-68
2023/01/14 01:38:02;;;;;;;1.55;0.73;;;;;;;9.75;92.62;100225.03;4984699;28;20058;-68
2023/01/14 01:40:28;;;;;;;1.45;0.32;;;;;;;9.74;92.49;100236.13;4977119;28;20046;-68
2023/01/14 01:42:57;;;;;;;1.70;0.50;;;;;;;9.79;92.61;100238.53;4971065;28;20046;-68
2023/01/14 01:45:36;;;;;;;3.20;0.43;;;;;;;9.82;92.12;100227.03;4974184;28;20057;-69
2023/01/14 01:48:24;;;;;;;1.75;0.50;;;;;;;9.56;92.73;100241.19;4987633;28;20107;-68
2023/01/14 01:50:58;;;;;;;3.90;0.63;;;;;;;9.58;93.15;100255.03;4980414;28;20117;-69
2023/01/14 01:53:26;;;;;;;0.57;0.57;;;;;;;9.57;92.96;100258.09;4987387;28;20038;-68
2023/01/14 01:55:54;;;;;;;3.90;0.80;;;;;;;9.62;93.21;100255.13;4973876;28;20125;-68
2023/01/14 01:58:21;;;;;;;1.02;0.40;;;;;;;9.69;92.18;100266.78;4979718;28;20581;-68
2023/01/14 02:00:47;;;;;;;3.55;0.70;;;;;;;9.79;92.55;100265.41;4970833;28;20447;-68
2023/01/14 02:03:19;;;;;;;3.50;0.57;;;;;;;9.74;92.16;100274.53;4981924;28;20035;-68
2023/01/14 02:05:47;;;;;;;2.95;0.50;;;;;;;9.81;92.69;100290.03;4986580;28;20065;-68
2023/01/14 02:08:13;;;;;;;4.53;0.57;;;;;;;9.78;92.56;100279.97;4969067;28;20042;-68
2023/01/14 02:11:03;;;;;;;0.25;0.25;;;;;;;9.68;92.75;100296.69;4975805;28;20037;-68
2023/01/14 02:14:01;;;;;;;4.45;0.73;;;;;;;9.65;92.87;100284.75;5012971;28;20084;-68
2023/01/14 02:16:27;;;;;;;0.65;0.50;;;;;;;9.76;92.38;100301.06;5022448;28;20034;-68
2023/01/14 02:19:01;;;;;;;1.52;0.68;;;;;;;9.72;92.68;100290.25;5027744;28;20040;-67
2023/01/14 02:21:36;;;;;;;4.75;0.77;;;;;;;9.66;92.86;100293.59;5022373;28;20494;-67
2023/01/14 02:24:04;;;;;;;3.08;0.60;;;;;;;9.85;92.06;100296.25;5021351;28;20447;-67
2023/01/14 02:26:48;;;;;;;1.10;0.32;;;;;;;9.86;91.81;100295.09;5009273;28;20033;-66
2023/01/14 02:29:17;;;;;;;4.28;0.70;;;;;;;9.73;91.94;100282.97;5024060;28;20739;-66
2023/01/14 02:32:26;;;;;;;2.17;0.32;;;;;;;9.73;92.93;100291.03;5027266;28;20497;-66
2023/01/14 02:35:09;;;;;;;1.48;0.40;;;;;;;9.79;91.83;100290.38;5030681;28;20038;-66
2023/01/14 02:38:01;;;;;;;2.20;0.47;;;;;;;9.77;92.58;100294.56;5010865;28;20279;-66
2023/01/14 02:40:39;;;;;;;0.88;0.52;;;;;;;9.83;92.45;100298.53;5034264;28;20405;-66
2023/01/14 02:46:34;;;;;;;1.48;0.55;;;;;;;9.86;92.53;100313.94;5035634;28;20045;-66
2023/01/14 02:49:07;;;;;;;0.47;0.45;;;;;;;9.77;92.78;100300.72;5034322;28;20045;-67
2023/01/14 02:51:33;;;;;;;0.95;0.50;;;;;;;9.81;92.91;100296.16;5018304;28;20033;-69
2023/01/14 02:53:59;;;;;;;4.20;0.90;;;;;;;9.86;92.35;100297.78;5037116;28;20556;-69
2023/01/14 02:56:26;;;;;;;1.40;0.70;;;;;;;9.78;92.05;100302.28;5038299;28;20087;-69
2023/01/14 02:59:13;;;;;;;5.25;0.65;;;;;;;9.76;92.53;100306.44;5035057;28;20121;-67
2023/01/14 03:01:47;;;;;;;0.70;0.70;;;;;;;9.77;92.16;100300.72;5027898;28;20775;-67
2023/01/14 03:04:31;;;;;;;3.28;0.50;;;;;;;9.74;92.37;100293.38;5019411;28;20106;-67
2023/01/14 03:07:19;;;;;;;1.55;0.60;;;;;;;9.85;91.90;100299.69;5019384;28;20049;-67
2023/01/14 03:10:00;;;;;;;2.72;0.73;;;;;;;9.79;91.97;100297.69;5016139;28;20033;-67
2023/01/14 03:12:49;;;;;;;1.05;0.85;;;;;;;9.74;92.54;100303.34;5035317;28;20113;-67
2023/01/14 03:15:28;;;;;;;1.38;0.55;;;;;;;9.75;92.73;100308.38;4999574;28;20076;-67
2023/01/14 03:17:57;;;;;;;1.75;0.50;;;;;;;9.80;92.07;100318.81;5016864;28;20393;-67
2023/01/14 03:20:32;;;;;;;0.52;0.52;;;;;;;9.77;91.90;100311.47;5038001;28;20040;-67
2023/01/14 03:23:05;;;;;;;3.60;0.82;;;;;;;9.74;91.89;100309.50;5013865;28;20018;-67
2023/01/14 03:25:36;;;;;;;0.40;0.30;;;;;;;9.79;91.95;100313.81;5016982;28;20033;-67
2023/01/14 03:28:11;;;;;;;1.50;0.52;;;;;;;9.76;91.85;100314.50;5013517;28;20433;-67
2023/01/14 03:30:40;;;;;;;0.57;0.57;;;;;;;9.78;91.59;100323.00;5020008;28;20053;-67
2023/01/14 03:33:10;;;;;;;2.22;0.60;;;;;;;9.63;92.14;100329.25;5019236;28;20037;-67
2023/01/14 03:35:42;;;;;;;0.50;0.40;;;;;;;9.73;91.93;100320.63;5032643;28;20033;-67
2023/01/14 03:38:18;;;;;;;0.52;0.45;;;;;;;9.76;91.97;100325.25;5018945;28;20033;-67
2023/01/14 03:40:46;;;;;;;0.73;0.63;;;;;;;9.81;91.30;100316.91;5017397;28;20061;-67
2023/01/14 03:43:27;;;;;;;1.00;0.55;;;;;;;9.82;91.34;100330.00;5023188;28;20036;-67
2023/01/14 03:45:53;;;;;;;0.98;0.45;;;;;;;9.81;91.47;100330.38;5019821;28;20046;-67
2023/01/14 03:48:19;;;;;;;0.20;0.20;;;;;;;9.80;91.76;100326.09;5019889;28;20048;-67
2023/01/14 03:50:50;;;;;;;1.58;0.50;;;;;;;9.87;91.15;100332.38;5016262;28;20037;-67
2023/01/14 03:53:24;;;;;;;0.57;0.40;;;;;;;9.91;90.48;100327.09;5020562;28;20580;-67
2023/01/14 03:56:09;;;;;;;1.35;0.73;;;;;;;9.82;90.86;100332.69;5036334;28;20037;-67
2023/01/14 03:59:00;;;;;;;0.65;0.43;;;;;;;9.84;91.16;100332.31;5020966;28;20029;-67
2023/01/14 04:01:38;;;;;;;1.42;0.57;;;;;;;9.84;91.55;100337.72;5017702;28;20555;-67
2023/01/14 04:04:05;;;;;;;0.30;0.28;;;;;;;9.69;91.18;100339.38;5021724;28;20109;-67
2023/01/14 04:06:30;;;;;;;1.77;0.70;;;;;;;9.78;91.42;100344.50;5023838;28;20091;-67
2023/01/14 04:08:56;;;;;;;1.52;0.50;;;;;;;9.70;91.44;100337.44;5020521;28;20421;-67
2023/01/14 04:11:22;;;;;;;3.35;1.17;;;;;;;9.75;91.47;100342.53;5025495;28;20029;-67
2023/01/14 04:16:31;;;;;;;2.17;0.65;;;;;;;9.77;92.07;100343.75;5018458;28;20120;-67
2023/01/14 04:18:57;;;;;;;5.00;0.90;;;;;;;9.76;92.64;100341.41;5012911;28;20132;-67
2023/01/14 04:21:22;;;;;;;1.35;0.77;;;;;;;9.65;92.81;100343.13;5031425;28;20038;-67
2023/01/14 04:24:08;;;;;;;3.25;1.05;;;;;;;9.58;94.07;100343.75;5025613;28;20133;-67
2023/01/14 04:26:33;;;;;;;4.07;1.20;;;;;;;9.66;93.94;100348.13;4966962;28;20050;-67
2023/01/14 04:28:59;;;;;;;0.68;0.68;;;;;;;9.64;94.27;100349.66;4976197;28;20065;-67
2023/01/14 04:31:24;;;;;;;2.28;0.63;;;;;;;9.59;94.65;100353.38;4966877;28;20049;-67
2023/01/14 04:33:50;;;;;;;3.90;0.68;;;;;;;9.71;93.91;100360.53;4985874;28;20034;-67
2023/01/14 04:36:15;;;;;;;4.50;0.68;;;;;;;9.47;94.44;100358.13;4967476;28;20058;-68
2023/01/14 04:38:41;;;;;;;0.98;0.88;;;;;;;9.53;94.98;100354.03;4985754;28;20503;-67
2023/01/14 04:41:06;;;;;;;0.30;0.30;;;;;;;9.52;94.85;100355.94;4971770;28;20129;-67
2023/01/14 04:43:32;;;;;;;0.30;0.30;;;;;;;9.63;95.22;100366.88;4990557;28;20046;-67
2023/01/14 04:45:57;;;;;;;0.40;0.40;;;;;;;9.56;94.30;100372.13;4971111;28;20092;-67
2023/01/14 04:48:24;;;;;;;1.65;0.40;;;;;;;9.54;95.51;100366.34;4991224;28;20038;-67
2023/01/14 04:50:50;;;;;;;1.55;0.63;;;;;;;9.58;95.02;100364.50;4989914;28;20089;-67
2023/01/14 04:53:18;;;;;;;0.70;0.45;;;;;;;9.57;95.27;100362.94;4967135;28;20457;-67
2023/01/14 04:55:45;;;;;;;4.50;0.70;;;;;;;9.63;95.06;100361.50;4997766;23;21470;-68
2023/01/14 04:58:13;;;;;;;1.08;0.68;;;;;;;9.60;95.70;100368.38;5042075;28;20699;-68
2023/01/14 05:00:39;;;;;;;5.25;0.95;;;;;;;9.56;95.45;100364.84;5040422;28;20041;-67
2023/01/14 05:03:06;;;;;;;5.35;0.85;;;;;;;9.59;95.87;100372.19;5042727;28;20033;-67
2023/01/14 05:05:33;;;;;;;4.05;0.70;;;;;;;9.60;96.03;100371.06;5047907;28;20041;-68
2023/01/14 05:07:58;;;;;;;0.68;0.68;;;;;;;9.58;95.60;100367.19;5036075;28;20028;-68
2023/01/14 05:10:25;;;;;;;4.00;0.80;;;;;;;9.49;96.35;100364.72;5038007;28;20512;-68
2023/01/14 05:12:57;;;;;;;1.63;0.82;;;;;;;9.42;96.83;100374.53;5039539;28;20489;-68
2023/01/14 05:15:42;;;;;;;1.27;0.80;;;;;;;9.51;96.95;100367.03;5014642;28;20509;-68
2023/01/14 05:18:09;;;;;;;1.25;0.88;;;;;;;9.50;97.00;100365.50;5034729;28;20120;-68
2023/01/14 05:20:35;;;;;;;4.22;1.20;;;;;;;9.47;96.59;100375.03;5039732;28;20037;-68
2023/01/14 05:23:03;;;;;;;1.92;1.30;;;;;;;9.54;97.24;100367.09;5037210;28;20103;-67
2023/01/14 05:25:31;;;;;;;4.47;1.38;;;;;;;9.52;97.18;100363.22;5040640;28;20041;-68
2023/01/14 05:28:01;;;;;;;4.18;1.83;;;;;;;9.60;97.25;100354.94;5030667;28;20061;-67
2023/01/14 05:30:26;;;;;;;5.82;1.70;;;;;;;9.59;96.85;100348.00;5036837;28;20094;-68
2023/01/14 05:32:52;;;;;;;2.15;1.55;;;;;;;9.58;96.90;100348.38;5032862;28;20104;-68
2023/01/14 05:35:17;;;;;;;4.47;1.80;;;;;;;9.52;97.19;100347.88;5039141;28;20445;-68
2023/01/14 05:37:43;;;;;;;1.23;1.05;;;;;;;9.54;97.47;100350.22;5021049;28;20029;-68
2023/01/14 05:40:10;;;;;;;4.68;1.58;;;;;;;9.64;97.20;100349.66;5041526;28;20094;-68
2023/01/14 05:45:40;;;;;;;11.70;1.88;;;;;;;9.63;96.84;100353.44;5031690;28;20041;-68
2023/01/14 05:48:08;;;;;;;2.00;1.30;;;;;;;9.59;96.39;100352.59;5015486;28;20409;-68
2023/01/14 05:50:33;;;;;;;3.65;1.27;;;;;;;9.64;96.04;100368.47;5034570;28;20047;-68
2023/01/14 05:52:59;;;;;;;4.43;1.38;;;;;;;9.62;96.75;100351.91;5015847;28;20112;-69
2023/01/14 05:55:25;;;;;;;7.65;1.60;;;;;;;9.51;96.29;100354.38;5043246;28;20479;-68
2023/01/14 05:57:50;;;;;;;1.80;1.20;;;;;;;9.49;96.65;100353.16;5039299;28;20029;-67
2023/01/14 06:08:30;;;;;;;2.70;1.60;;;;;;;9.66;96.29;100341.97;5039082;28;20083;-67
2023/01/14 06:10:55;;;;;;;2.22;1.70;;;;;;;9.56;96.53;100345.25;4996608;28;20030;-68
2023/01/14 06:13:24;;;;;;;4.07;1.48;;;;;;;9.56;95.92;100339.88;5013510;28;20028;-67
2023/01/14 06:15:55;;;;;;;3.40;1.42;;;;;;;9.59;95.85;100331.88;5013278;28;20490;-67
2023/01/14 06:18:22;;;;;;;9.95;2.13;;;;;;;9.68;95.55;100331.66;5034518;28;20033;-68
2023/01/14 06:20:52;;;;;;;1.80;1.10;;;;;;;9.68;95.94;100337.81;5041117;28;20037;-67
2023/01/14 06:23:20;;;;;;;5.20;1.48;;;;;;;9.70;96.18;100326.69;5039519;28;20061;-68
2023/01/14 06:25:47;;;;;;;5.43;1.92;;;;;;;9.74;95.15;100338.28;5037008;28;20088;-68
2023/01/14 06:28:13;;;;;;;2.50;1.38;;;;;;;9.72;95.18;100329.78;5033855;28;20051;-67
2023/01/14 06:30:39;;;;;;;4.32;1.13;;;;;;;9.71;95.83;100334.41;5033574;28;20397;-67
2023/01/14 06:33:06;;;;;;;7.22;1.45;;;;;;;9.67;95.36;100335.47;5034638;28;20116;-68
2023/01/14 06:35:33;;;;;;;1.48;1.00;;;;;;;9.63;95.39;100331.94;5034460;28;20390;-69
2023/01/14 06:37:58;;;;;;;3.35;1.33;;;;;;;9.68;96.00;100323.56;5034203;28;20539;-68
2023/01/14 06:40:24;;;;;;;2.92;1.08;;;;;;;9.65;95.67;100329.69;5011960;28;20057;-68
2023/01/14 06:42:52;;;;;;;2.90;1.30;;;;;;;9.74;95.74;100328.31;5033762;28;20379;-68
2023/01/14 06:45:18;;;;;;;0.70;0.60;;;;;;;9.78;95.34;100328.38;5030212;28;20037;-68
2023/01/14 06:47:43;;;;;;;1.55;1.20;;;;;;;9.75;95.13;100318.34;5030818;28;20091;-68
2023/01/14 06:50:10;;;;;;;3.55;1.33;;;;;;;9.70;95.34;100316.72;5029492;28;20039;-69
2023/01/14 06:52:35;;;;;;;6.93;1.30;;;;;;;9.71;95.85;100323.66;5026776;28;20192;-68
2023/01/14 06:55:00;;;;;;;5.50;1.45;;;;;;;9.83;95.33;100322.72;5029117;28;20120;-68
2023/01/14 06:57:26;;;;;;;2.33;1.17;;;;;;;9.77;95.07;100324.94;5028842;28;20037;-68
2023/01/14 06:59:52;;;;;;;1.92;1.17;;;;;;;9.73;95.20;100326.78;5036622;28;20037;-68
2023/01/14 07:02:18;;;;;;;6.97;1.17;;;;;;;9.68;95.35;100328.94;5025025;28;20060;-68
2023/01/14 07:04:43;;;;;;;6.40;1.00;;;;;;;9.65;95.34;100330.47;5021171;28;20485;-68
2023/01/14 07:07:10;;;;;;;3.13;1.20;;;;;;;9.69;95.06;100323.25;5011559;28;20037;-68
2023/01/14 07:09:35;;;;;;;5.72;1.50;;;;;;;9.57;95.06;100320.72;5043665;28;20037;-67
2023/01/14 07:12:01;;;;;;;2.92;1.38;;;;;;;9.61;95.67;100320.78;5037821;28;20063;-67
2023/01/14 07:14:26;;;;;;;5.28;1.70;;;;;;;9.56;95.38;100313.00;5048267;28;20481;-68
2023/01/14 07:16:52;;;;;;;6.70;1.42;;;;;;;9.53;95.45;100308.31;5050785;28;20029;-68
2023/01/14 07:19:17;;;;;;;13.18;1.70;;;;;;;9.45;95.40;100312.00;5035682;28;20029;-67
2023/01/14 07:21:42;;;;;;;3.92;1.70;;;;;;;9.53;95.87;100316.38;5030137;28;20037;-67
2023/01/14 07:24:08;;;;;;;1.73;0.77;;;;;;;9.58;94.86;100313.44;5026585;28;20258;-67
2023/01/14 07:26:33;;;;;;;4.38;1.88;;;;;;;9.49;95.37;100302.88;5024946;28;20049;-67
2023/01/14 07:28:59;;;;;;;4.82;1.70;;;;;;;9.48;94.84;100309.41;5024449;28;20025;-68
2023/01/14 07:31:24;;;;;;;6.03;1.33;;;;;;;9.39;95.38;100300.78;5027248;28;20044;-67
2023/01/14 07:33:50;;;;;;;2.20;1.13;;;;;;;9.33;94.73;100301.44;5029019;28;20026;-67
2023/01/14 07:36:16;;;;;;;4.43;1.33;;;;;;;9.35;95.11;100291.09;5029957;28;20029;-68
2023/01/14 07:38:41;;;;;;;7.00;1.60;;;;;;;9.33;95.43;100291.44;5020304;28;20033;-67
2023/01/14 07:41:18;;;;;;;4.05;1.40;;;;;;;9.30;95.66;100289.47;5030377;28;20029;-68
2023/01/14 07:43:45;;;;;;;1.98;0.90;;;;;;;9.27;95.28;100292.09;5003196;28;20467;-68
2023/01/14 07:46:10;;;;;;;6.05;1.27;;;;;;;9.40;94.71;100296.19;5028368;28;20119;-68
2023/01/14 07:48:36;;;;;;;4.80;1.55;;;;;;;9.34;95.01;100292.22;5035521;28;20067;-68
2023/01/14 07:51:06;;;;;;;6.03;1.55;;;;;;;9.34;95.08;100292.22;5039972;28;20136;-68
2023/01/14 07:53:32;;;;;;;5.10;1.42;;;;;;;9.27;94.85;100284.78;5032425;28;20092;-68
2023/01/14 07:56:01;;;;;;;11.38;1.88;;;;;;;9.32;94.63;100273.00;5024560;28;20112;-68
2023/01/14 07:58:26;;;;;;;3.63;1.30;;;;;;;9.14;95.45;100285.31;5025246;28;20169;-67
2023/01/14 08:00:53;;;;;;;8.27;1.98;;;;;;;9.29;94.68;100295.22;5021529;28;20104;-68
2023/01/14 08:03:19;;;;;;;4.82;1.60;;;;;;;9.12;94.91;100292.97;5025303;28;20065;-67
2023/01/14 08:05:45;;;;;;;4.65;1.40;;;;;;;9.08;95.46;100293.66;5023025;28;20065;-68
2023/01/14 08:08:11;;;;;;;2.25;1.50;;;;;;;9.19;95.17;100301.16;5028079;28;20159;-67
2023/01/14 08:10:36;;;;;;;2.97;1.23;;;;;;;9.26;94.38;100295.91;5016011;28;20129;-68
2023/01/14 08:13:02;;;;;;;6.55;1.20;;;;;;;9.26;94.62;100296.69;5030629;28;20025;-68
2023/01/14 08:15:27;;;;;;;4.90;1.13;;;;;;;9.09;94.62;100295.22;5022644;28;20489;-68
2023/01/14 08:17:56;;;;;;;5.75;2.22;;;;;;;9.16;94.65;100291.09;5032764;28;20116;-69
2023/01/14 08:20:23;;;;;;;5.03;1.70;;;;;;;9.27;93.83;100276.72;5034869;28;20034;-68
2023/01/14 08:22:49;;;;;;;4.20;1.30;;;;;;;9.32;93.53;100276.47;5029280;28;20040;-68
2023/01/14 08:25:15;;;;;;;7.13;1.55;;;;;;;9.32;93.24;100284.53;5031208;28;20136;-68
2023/01/14 08:27:40;;;;;;;2.00;1.20;;;;;;;9.23;93.48;100275.13;5024975;28;20109;-68
2023/01/14 08:30:07;;;;;;;0.82;0.82;;;;;;;9.17;94.02;100271.16;5031701;28;20094;-68
2023/01/14 08:32:32;;;;;;;1.13;1.02;;;;;;;9.26;93.34;100272.50;5026332;28;20058;-68
2023/01/14 08:34:58;;;;;;;2.22;1.08;;;;;;;9.38;92.92;100261.59;5033716;28;20064;-68
2023/01/14 08:37:23;;;;;;;9.38;1.27;;;;;;;9.35;92.84;100267.69;5007532;28;20044;-68
2023/01/14 08:39:49;;;;;;;3.40;1.85;;;;;;;9.33;92.82;100264.56;5026119;28;20033;-68
2023/01/14 08:42:14;;;;;;;7.40;1.60;;;;;;;9.33;92.99;100258.44;5031630;28;20082;-68
2023/01/14 08:44:40;;;;;;;6.30;1.73;;;;;;;9.29;92.62;100269.09;5027430;28;20033;-68
2023/01/14 08:47:05;;;;;;;2.63;0.90;;;;;;;9.36;92.61;100246.97;5014401;28;20045;-68
2023/01/14 08:49:31;;;;;;;3.67;1.40;;;;;;;9.27;91.96;100247.19;5011126;28;20045;-68
2023/01/14 08:51:58;;;;;;;4.70;1.27;;;;;;;9.32;92.96;100246.13;5029083;28;20429;-68
2023/01/14 08:54:24;;;;;;;8.88;1.80;;;;;;;9.24;92.80;100241.75;5029751;28;20710;-69
2023/01/14 08:56:49;;;;;;;3.20;1.05;;;;;;;9.14;92.77;100242.34;5011503;28;20041;-68
2023/01/14 08:59:15;;;;;;;2.28;1.50;;;;;;;9.13;92.83;100236.19;5014621;28;20041;-68
2023/01/14 09:01:40;;;;;;;7.75;1.83;;;;;;;9.15;93.17;100233.94;5029509;28;20043;-68
2023/01/14 09:04:06;;;;;;;7.32;3.00;;;;;;;9.18;93.67;100230.50;5019293;28;20032;-68
2023/01/14 09:17:04;;;;;;;2.17;1.10;;;;;;;9.21;92.68;100227.13;5027312;28;20068;-68
2023/01/14 09:17:28;;;;;;;12.48;2.25;;;;;;;9.21;92.91;100207.53;5033063;28;20039;-68
2023/01/14 09:19:58;;;;;;;5.32;1.20;;;;;;;9.19;93.03;100207.13;5033499;28;20033;-69
2023/01/14 09:22:26;;;;;;;6.10;1.90;;;;;;;9.33;91.91;100188.59;5029485;28;20044;-68
2023/01/14 09:24:52;;;;;;;7.28;2.10;;;;;;;9.10;92.41;100202.75;5042306;28;20037;-68
2023/01/14 09:27:19;;;;;;;6.68;2.20;;;;;;;9.12;92.46;100207.75;5047548;28;20043;-68
2023/01/14 09:29:44;;;;;;;5.20;0.95;;;;;;;9.24;91.87;100198.75;5045635;28;20060;-68
2023/01/14 09:32:11;;;;;;;4.95;1.73;;;;;;;9.34;91.81;100190.91;5046144;28;20024;-69
2023/01/14 09:34:41;;;;;;;7.82;2.08;;;;;;;9.41;92.05;100182.97;5023342;28;20041;-69
2023/01/14 09:37:08;;;;;;;7.95;1.77;;;;;;;9.60;89.64;100179.44;5026983;28;20065;-69
2023/01/14 09:39:34;;;;;;;11.80;2.33;;;;;;;9.31;90.36;100186.22;5025340;28;20041;-69
2023/01/14 09:42:10;;;;;;;2.85;1.77;;;;;;;9.27;90.32;100181.94;5024019;28;20042;-69
2023/01/14 09:44:36;;;;;;;9.55;2.22;;;;;;;9.15;91.10;100174.84;5027919;28;20128;-69
2023/01/14 09:47:01;;;;;;;4.97;1.83;;;;;;;9.21;91.31;100167.25;5010047;28;20128;-69
2023/01/14 09:49:29;;;;;;;11.20;1.95;;;;;;;9.32;90.75;100154.78;5024004;28;20084;-69
2023/01/14 09:52:10;;;;;;;5.28;2.33;;;;;;;9.50;90.33;100163.91;5029046;28;20037;-69
2023/01/14 09:54:44;;;;;;;6.95;1.80;;;;;;;9.52;90.55;100170.50;5015761;28;20026;-69
2023/01/14 09:57:16;;;;;;;10.90;2.20;;;;;;;9.15;91.12;100155.25;5025654;28;20096;-69
2023/01/14 09:59:53;;;;;;;13.48;2.08;;;;;;;9.30;91.06;100163.19;5030041;28;20517;-69
2023/01/14 10:02:27;;;;;;;6.68;2.13;;;;;;;9.36;90.05;100144.84;5025252;28;20080;-69
2023/01/14 10:05:21;;;;;;;10.93;2.40;;;;;;;9.44;89.80;100154.59;5022006;28;20045;-69
2023/01/14 10:08:07;;;;;;;9.57;2.72;;;;;;;9.27;90.14;100141.66;5017921;28;20041;-68
2023/01/14 10:10:35;;;;;;;4.30;2.40;;;;;;;9.39;89.89;100138.78;4933567;29;20051;-68
2023/01/14 10:13:12;;;;;;;9.63;2.45;;;;;;;9.50;89.79;100128.97;4947395;28;20533;-68
2023/01/14 10:15:47;;;;;;;7.18;2.25;;;;;;;9.26;90.71;100123.97;4948795;28;20424;-68
2023/01/14 10:18:23;;;;;;;3.00;1.58;;;;;;;9.05;91.68;100119.00;4946729;28;20043;-68
2023/01/14 10:21:00;;;;;;;9.85;2.17;;;;;;;9.29;91.52;100107.13;4943307;29;20503;-69
2023/01/14 10:23:32;;;;;;;8.25;2.28;;;;;;;9.31;91.47;100104.88;4933005;29;20035;-69
2023/01/14 10:25:59;;;;;;;7.88;2.25;;;;;;;9.46;91.39;100101.28;4951357;29;20074;-68
2023/01/14 10:28:29;;;;;;;14.13;2.60;;;;;;;9.51;89.33;100090.19;4947687;29;20046;-69
2023/01/14 10:30:56;;;;;;;9.35;2.67;;;;;;;9.48;90.44;100088.25;4932122;29;20047;-69
2023/01/14 10:33:22;;;;;;;5.00;2.17;;;;;;;9.59;90.07;100078.44;4918521;29;20408;-68
2023/01/14 10:35:57;;;;;;;11.15;2.83;;;;;;;9.26;90.79;100064.84;4950912;29;20059;-68
2023/01/14 10:38:27;;;;;;;5.28;2.30;;;;;;;9.55;90.13;100058.78;4946315;29;20031;-69
2023/01/14 10:40:57;;;;;;;7.03;1.90;;;;;;;9.73;89.45;100052.53;4949928;29;20130;-69
2023/01/14 10:43:36;;;;;;;3.10;1.52;;;;;;;9.75;89.21;100034.13;4948636;29;20039;-69
2023/01/14 10:46:02;;;;;;;10.30;2.00;;;;;;;9.68;89.57;100033.22;4944431;29;20681;-68
2023/01/14 10:48:37;;;;;;;6.68;1.88;;;;;;;9.78;88.92;100024.53;5018212;28;20042;-69
2023/01/14 10:51:49;;;;;;;7.78;2.30;;;;;;;9.83;88.75;100010.78;5022739;28;20048;-70
2023/01/14 10:54:27;;;;;;;10.65;2.33;;;;;;;9.73;88.86;100011.41;5026609;28;20144;-69
2023/01/14 10:56:59;;;;;;;11.00;2.55;;;;;;;9.85;87.98;99997.75;5024241;28;20051;-68
2023/01/14 10:59:33;;;;;;;9.77;2.20;;;;;;;9.86;88.29;99985.84;5038960;28;20069;-68
2023/01/14 11:01:59;;;;;;;9.02;1.60;;;;;;;9.55;87.32;99970.88;5028825;28;20437;-67
2023/01/14 11:04:29;;;;;;;9.02;2.08;;;;;;;9.43;88.71;99956.88;5043038;28;20041;-68
2023/01/14 11:06:54;;;;;;;9.02;2.80;;;;;;;9.48;88.75;99948.50;5031629;28;20049;-68
2023/01/14 11:09:30;;;;;;;10.63;2.08;;;;;;;9.44;89.26;99942.31;5016517;28;20069;-69
2023/01/14 11:11:59;;;;;;;9.45;1.98;;;;;;;9.70;88.07;99944.94;5038842;28;20709;-67
2023/01/14 11:14:24;;;;;;;6.32;1.75;;;;;;;9.52;87.83;99933.97;5040313;28;20108;-68
2023/01/14 11:16:49;;;;;;;6.30;1.77;;;;;;;9.60;87.99;99924.09;5011895;28;20121;-68
2023/01/14 11:19:15;;;;;;;3.40;1.60;;;;;;;9.41;88.28;99916.94;5035685;28;20041;-67
2023/01/14 11:21:42;;;;;;;6.03;1.98;;;;;;;9.59;87.75;99909.09;5038133;28;20032;-68
2023/01/14 11:24:24;;;;;;;7.18;1.48;;;;;;;9.71;87.13;99895.41;5040549;28;20033;-68
2023/01/14 11:26:50;;;;;;;1.88;0.70;;;;;;;9.58;86.45;99902.19;5042211;28;20040;-69
2023/01/14 11:29:25;;;;;;;8.85;1.55;;;;;;;9.53;86.80;99883.66;5009376;28;20129;-68
2023/01/14 11:32:24;;;;;;;8.07;2.10;;;;;;;9.34;87.49;99867.69;5029101;28;20030;-68
2023/01/14 11:34:54;;;;;;;7.38;1.70;;;;;;;9.19;87.17;99866.00;5029943;28;20498;-68
2023/01/14 11:37:23;;;;;;;2.45;1.00;;;;;;;9.29;88.22;99857.28;5028920;28;20478;-68
2023/01/14 11:39:58;;;;;;;10.43;1.00;;;;;;;9.45;87.33;99857.84;5032903;28;20041;-69
2023/01/14 11:42:26;;;;;;;3.50;1.77;;;;;;;9.29;87.35;99859.97;5025885;28;20496;-68
2023/01/14 11:45:07;;;;;;;6.43;1.65;;;;;;;9.37;87.06;99843.56;5026514;28;20501;-68
2023/01/14 11:47:48;;;;;;;1.50;1.00;;;;;;;9.41;87.41;99830.16;5025431;28;20045;-69
2023/01/14 11:50:15;;;;;;;;;;;;;;;9.46;86.32;99833.31;5008419;28;20068;-68
2023/01/14 11:52:55;;;;;;;4.75;1.60;;;;;;;9.38;86.56;99822.84;5030387;28;19913;-68
2023/01/14 11:55:21;;;;;;;3.63;1.75;;;;;;;9.56;86.71;99813.06;5035089;28;20121;-68
2023/01/14 11:57:47;;;;;;;2.30;0.93;;;;;;;9.56;86.41;99799.63;5030964;28;20585;-68
2023/01/14 12:00:13;;;;;;;9.25;1.67;;;;;;;9.40;87.93;99807.13;5025457;28;20133;-69
2023/01/14 12:02:45;;;;;;;2.85;1.63;;;;;;;9.41;89.40;99782.56;5026021;28;20052;-69
2023/01/14 12:05:16;;;;;;;;;;;;;;;9.19;89.33;99774.66;5036023;28;20048;-68
2023/01/14 12:07:45;;;;;;;1.95;1.05;;;;;;;9.08;91.05;99759.19;5034308;28;20313;-68
2023/01/14 12:10:27;;;;;;;3.92;1.88;;;;;;;8.83;91.91;99749.28;5041320;28;20042;-68
2023/01/14 12:19:16;;;;;;;5.72;1.15;;;;;;;8.98;92.28;99741.03;5018096;28;20049;-69